Kezdőlap
METAR-TAF:

METAR-TAF

Repülőterek :

Dallas-Fort Worth, Texas, Amerikai Egyesült Államok

földrajzi szélesség: 32-53-49N, földrajzi hosszúság: 097-01-19W, magasság: 183 m

Jelenlegi meteorológiai megfigyelések

A jelentés 1 órával és 0 perccel ezelõtt készült, 09:53 UTC
Dél-délnyugati szél 10 kt
Hőmérséklet 28°C
Páratartalom 62%
Légköri nyomás 1015 hPa
Látótávolság: 14.5 km
Kevés felhő 25000 lábon

METAR: KDFW 160953Z 20010KT 9SM FEW250 28/20 A2997 RMK AO2 SLP138 T02830200

Idő: 05:53 (10:53 UTC)

Előrejelzés

A jelentés 1 órával és 56 perccel ezelõtt készült, 08:57 UTC
Az előrejelzés 16-én 09 óra UTC és 17-én 12 óra UTC között érvényes
Dél-délkeleti szél 10 kt
Látótávolság: 10 km
Szórványos felhőzet 6000 lábon

TAF: KDFW 160857Z 1609/1712 16010KT P6SM SCT060

Meteorológiai megfigyelések és előrejelzések több, mint 4000 repülőtéren (METAR és TAF jelentéseket).

A térképen piros és sárga pontok jelzik az elérhető meteorológiai állomásokat.

Mozgassa az egeret a pont fölött, hogy megjelenjen az állomás neve.

Azután kattintson az időjárási megfigyelések és előrejelzések megtekintéséhez.

A térkép megváltoztatása: kattintson a fekete keresztel jelölt zöld gombra ráközelítéshez, a vonallal jelölt zöld gombra távolításhoz, vagy a zöld nyilakra a szomszédos térképek eléréséhez.


METAR-TAF: